Time;durP1;ratioP1;P1;durP2;ratioP2;P2;SDS_P1;SDS_P2;PMS_P1;PMS_P2;Temp;Humidity;BMP_temperature;BMP_pressure;BME280_temperature;BME280_humidity;BME280_pressure;Samples;Min_cycle;Max_cycle;Signal;HPM_P1;HPM_P2
2022/08/31 00:05:09;;;;;;;3.88;1.88;;;;;;;9.68;100.00;101635.03;4972729;28;20484;-81
2022/08/31 00:07:36;;;;;;;3.25;2.33;;;;;;;9.74;100.00;101640.28;4973649;28;20046;-80
2022/08/31 00:10:13;;;;;;;3.92;2.00;;;;;;;9.68;100.00;101640.31;4971036;28;20412;-80
2022/08/31 00:12:42;;;;;;;2.20;1.73;;;;;;;9.68;100.00;101637.69;4989914;28;20062;-79
2022/08/31 00:15:11;;;;;;;2.00;1.80;;;;;;;9.67;100.00;101643.81;4975347;28;20043;-81
2022/08/31 00:17:39;;;;;;;4.15;1.85;;;;;;;9.63;100.00;101650.00;4973808;28;20049;-79
2022/08/31 00:20:08;;;;;;;3.97;1.90;;;;;;;9.56;100.00;101647.34;4967158;28;20035;-80
2022/08/31 00:22:55;;;;;;;3.63;1.75;;;;;;;9.55;100.00;101647.34;4947842;28;20097;-80
2022/08/31 00:25:23;;;;;;;2.30;1.90;;;;;;;9.53;100.00;101644.72;4969487;28;20495;-80
2022/08/31 00:27:49;;;;;;;2.47;1.80;;;;;;;9.50;100.00;101639.47;4969111;28;20054;-80
2022/08/31 00:30:16;;;;;;;1.65;1.50;;;;;;;9.50;100.00;101644.72;4978437;28;20743;-81
2022/08/31 00:32:43;;;;;;;2.35;1.70;;;;;;;9.46;100.00;101634.16;5015742;23;20041;-83
2022/08/31 00:35:10;;;;;;;2.53;1.60;;;;;;;9.44;100.00;101642.09;4995315;28;20069;-83
2022/08/31 00:37:36;;;;;;;2.67;1.95;;;;;;;9.45;100.00;101638.56;5010829;28;20037;-83
2022/08/31 00:40:04;;;;;;;2.47;1.70;;;;;;;9.36;100.00;101641.22;4994878;28;20049;-83
2022/08/31 00:42:32;;;;;;;1.95;1.63;;;;;;;9.35;100.00;101644.72;4991392;28;20506;-84
2022/08/31 00:44:59;;;;;;;1.92;1.40;;;;;;;9.31;100.00;101642.94;4991744;28;20054;-83
2022/08/31 00:47:26;;;;;;;2.15;1.70;;;;;;;9.33;100.00;101646.47;4974159;28;20049;-82
2022/08/31 00:49:52;;;;;;;2.10;1.85;;;;;;;9.29;100.00;101647.34;4977269;28;20038;-84
2022/08/31 00:52:29;;;;;;;2.10;1.77;;;;;;;9.28;100.00;101650.88;4977387;28;20046;-84
2022/08/31 00:55:15;;;;;;;2.83;1.55;;;;;;;9.25;100.00;101653.53;4990814;28;20054;-83
2022/08/31 00:57:45;;;;;;;2.17;1.98;;;;;;;9.31;100.00;101651.75;4976944;28;20054;-84
2022/08/31 01:00:16;;;;;;;3.08;1.50;;;;;;;9.41;100.00;101649.09;4978009;28;20072;-84
2022/08/31 01:02:43;;;;;;;2.88;1.75;;;;;;;9.39;100.00;101642.97;5004860;28;20042;-83
2022/08/31 01:05:11;;;;;;;3.20;2.00;;;;;;;9.37;100.00;101640.31;4977756;28;20061;-84
2022/08/31 01:07:38;;;;;;;3.13;2.13;;;;;;;9.33;100.00;101646.47;4975079;28;20487;-84
2022/08/31 01:10:06;;;;;;;2.17;1.58;;;;;;;9.33;100.00;101641.19;4977456;28;20038;-84
2022/08/31 01:12:32;;;;;;;3.83;1.77;;;;;;;9.34;100.00;101640.34;4975498;28;20042;-84
2022/08/31 01:15:02;;;;;;;2.58;1.98;;;;;;;9.38;100.00;101638.56;4975941;28;20494;-83
2022/08/31 01:17:32;;;;;;;4.70;2.08;;;;;;;9.37;100.00;101640.31;4991308;28;20041;-83
2022/08/31 01:20:07;;;;;;;2.53;1.90;;;;;;;9.29;100.00;101639.44;4992794;28;20057;-84
2022/08/31 01:23:01;;;;;;;3.67;1.98;;;;;;;9.22;100.00;101635.03;4975467;28;20044;-83
2022/08/31 01:25:28;;;;;;;4.13;2.60;;;;;;;9.16;100.00;101638.53;4990014;28;20049;-84
2022/08/31 01:28:01;;;;;;;2.63;2.22;;;;;;;9.17;100.00;101640.31;4977879;28;20292;-83
2022/08/31 01:30:27;;;;;;;2.22;2.03;;;;;;;9.18;100.00;101633.28;4988608;28;20038;-84
2022/08/31 01:32:54;;;;;;;3.83;2.10;;;;;;;9.17;100.00;101635.06;4972817;28;20080;-83
2022/08/31 01:35:21;;;;;;;2.33;2.08;;;;;;;9.18;100.00;101642.09;4991912;28;20991;-84
2022/08/31 01:37:48;;;;;;;2.50;1.92;;;;;;;9.16;100.00;101633.25;4976064;28;20042;-84
2022/08/31 01:40:15;;;;;;;2.50;1.88;;;;;;;9.16;100.00;101629.75;4976046;28;20045;-82
2022/08/31 01:42:42;;;;;;;2.63;2.08;;;;;;;9.15;100.00;101641.19;4975048;28;20033;-83
2022/08/31 01:45:10;;;;;;;3.05;1.92;;;;;;;9.01;100.00;101639.41;4976791;28;20049;-83
2022/08/31 01:47:38;;;;;;;3.85;2.10;;;;;;;9.03;100.00;101649.97;5008768;28;20038;-83
2022/08/31 01:50:06;;;;;;;2.97;2.08;;;;;;;9.00;100.00;101648.22;4997242;28;20037;-81
2022/08/31 01:52:35;;;;;;;3.20;1.90;;;;;;;8.97;100.00;101645.53;4984731;28;20038;-84
2022/08/31 01:55:04;;;;;;;2.50;2.17;;;;;;;9.00;100.00;101653.47;4979945;28;20048;-82
2022/08/31 01:57:31;;;;;;;1.90;1.60;;;;;;;9.05;100.00;101649.97;4977977;28;20442;-84
2022/08/31 02:00:03;;;;;;;2.25;1.90;;;;;;;8.94;100.00;101653.47;4975900;28;20038;-81
2022/08/31 02:02:30;;;;;;;2.60;2.22;;;;;;;8.98;100.00;101652.56;4975009;28;20545;-82
2022/08/31 02:04:57;;;;;;;2.63;2.00;;;;;;;8.94;100.00;101655.22;4967256;28;20042;-81
2022/08/31 02:07:24;;;;;;;2.60;1.88;;;;;;;8.96;100.00;101658.72;4993749;28;20056;-81
2022/08/31 02:09:52;;;;;;;2.17;1.98;;;;;;;8.98;100.00;101656.97;4994619;28;20061;-82
2022/08/31 02:12:19;;;;;;;2.58;1.90;;;;;;;8.94;100.00;101655.22;4974263;28;20126;-80
2022/08/31 02:14:46;;;;;;;2.53;2.33;;;;;;;8.93;100.00;101653.47;4967357;28;20053;-80
2022/08/31 02:17:12;;;;;;;2.95;2.58;;;;;;;8.94;100.00;101655.22;4965852;28;20129;-81
2022/08/31 02:19:39;;;;;;;3.60;2.22;;;;;;;8.92;100.00;101657.84;4976331;28;20049;-80
2022/08/31 02:22:06;;;;;;;3.70;2.28;;;;;;;8.87;100.00;101662.22;4993337;28;20042;-81
2022/08/31 02:24:33;;;;;;;3.40;2.00;;;;;;;8.85;100.00;101661.34;4994390;28;21364;-81
2022/08/31 02:26:59;;;;;;;3.25;2.25;;;;;;;8.82;100.00;101663.94;4993847;28;20042;-80
2022/08/31 02:29:26;;;;;;;2.13;1.92;;;;;;;8.76;100.00;101655.19;4993844;28;20070;-81
2022/08/31 02:31:53;;;;;;;3.50;2.22;;;;;;;8.73;100.00;101656.91;4987787;28;20046;-81
2022/08/31 02:34:19;;;;;;;2.42;2.08;;;;;;;8.66;100.00;101655.16;4993115;28;20639;-80
2022/08/31 02:36:46;;;;;;;4.03;2.00;;;;;;;8.67;100.00;101661.31;4989539;28;20038;-80
2022/08/31 02:39:13;;;;;;;2.70;1.98;;;;;;;8.63;100.00;101670.03;4977842;28;20041;-81
2022/08/31 02:41:46;;;;;;;3.00;2.15;;;;;;;8.57;100.00;101659.47;4969239;28;20042;-84
2022/08/31 02:44:13;;;;;;;2.47;2.10;;;;;;;8.56;100.00;101660.34;4986887;28;20038;-81
2022/08/31 02:46:40;;;;;;;3.38;2.17;;;;;;;8.58;100.00;101656.00;4975466;28;20398;-81
2022/08/31 02:49:06;;;;;;;2.00;1.80;;;;;;;8.58;100.00;101654.25;4976799;28;20045;-81
2022/08/31 02:51:33;;;;;;;2.78;2.10;;;;;;;8.55;100.00;101653.34;4991449;28;20108;-83
2022/08/31 02:54:00;;;;;;;2.65;2.28;;;;;;;8.54;100.00;101654.22;5007722;28;20517;-83
2022/08/31 02:56:26;;;;;;;4.75;2.10;;;;;;;8.53;100.00;101660.34;4991011;28;20153;-81
2022/08/31 02:58:53;;;;;;;4.05;2.25;;;;;;;8.51;100.00;101659.47;4964355;28;20046;-81
2022/08/31 03:01:22;;;;;;;2.45;1.98;;;;;;;8.45;100.00;101653.31;5021134;28;20120;-81
2022/08/31 03:03:49;;;;;;;3.05;2.05;;;;;;;8.51;100.00;101647.19;5004862;28;20049;-80
2022/08/31 03:06:17;;;;;;;3.10;1.98;;;;;;;8.40;100.00;101647.13;4991799;28;20049;-81
2022/08/31 03:08:44;;;;;;;2.90;2.40;;;;;;;8.34;100.00;101644.47;4981930;28;20069;-81
2022/08/31 03:11:12;;;;;;;2.80;1.95;;;;;;;8.45;100.00;101639.25;5005444;28;20060;-80
2022/08/31 03:13:39;;;;;;;2.40;1.90;;;;;;;8.41;100.00;101640.13;4967124;28;20050;-80
2022/08/31 03:16:06;;;;;;;2.30;2.10;;;;;;;8.38;100.00;101635.72;4980629;28;20408;-80
2022/08/31 03:18:33;;;;;;;3.23;2.10;;;;;;;8.38;100.00;101626.94;4999007;28;20057;-80
2022/08/31 03:21:01;;;;;;;2.50;2.20;;;;;;;8.31;100.00;101630.38;4979613;28;20046;-81
2022/08/31 03:23:28;;;;;;;3.37;2.10;;;;;;;8.24;100.00;101621.59;4991537;28;20129;-80
2022/08/31 03:25:58;;;;;;;3.67;2.10;;;;;;;8.29;100.00;101627.75;4978309;28;20038;-82
2022/08/31 03:28:25;;;;;;;3.10;2.30;;;;;;;8.31;100.00;101631.25;4974076;28;20042;-82
2022/08/31 03:30:52;;;;;;;3.80;2.20;;;;;;;8.30;100.00;101629.50;4971262;28;20050;-82
2022/08/31 03:33:19;;;;;;;2.83;1.93;;;;;;;8.27;100.00;101629.50;4979543;28;20050;-82
2022/08/31 03:35:46;;;;;;;2.80;2.17;;;;;;;8.17;100.00;101639.09;4993139;28;20085;-82
2022/08/31 03:38:14;;;;;;;2.93;1.87;;;;;;;8.26;100.00;101642.66;4992693;28;20133;-82
2022/08/31 03:40:42;;;;;;;2.67;2.20;;;;;;;8.26;100.00;101635.63;4986985;28;20516;-82
2022/08/31 03:43:10;;;;;;;2.03;1.83;;;;;;;8.23;100.00;101646.13;4980040;28;20483;-82
2022/08/31 03:45:39;;;;;;;2.20;1.90;;;;;;;8.16;100.00;101645.25;4967804;28;20046;-82
2022/08/31 03:48:07;;;;;;;4.40;2.10;;;;;;;8.08;100.00;101646.09;4970591;28;20049;-82
2022/08/31 03:50:39;;;;;;;4.77;2.30;;;;;;;8.06;100.00;101653.06;4988751;28;20050;-82
2022/08/31 03:53:06;;;;;;;4.50;2.50;;;;;;;8.06;100.00;101647.81;4996890;28;20057;-82
2022/08/31 03:55:35;;;;;;;2.30;1.77;;;;;;;8.01;100.00;101653.06;4976010;28;20042;-83
2022/08/31 03:58:03;;;;;;;2.80;2.10;;;;;;;7.99;100.00;101648.63;4977111;28;20038;-83
2022/08/31 04:00:32;;;;;;;2.90;2.10;;;;;;;8.01;100.00;101657.44;4964328;28;20080;-83
2022/08/31 04:03:00;;;;;;;5.17;2.47;;;;;;;7.95;100.00;101650.38;5012019;28;20041;-83
2022/08/31 04:05:32;;;;;;;3.90;2.30;;;;;;;7.92;100.00;101652.13;4976685;28;20042;-83
2022/08/31 04:07:59;;;;;;;3.63;2.27;;;;;;;7.89;100.00;101652.97;5011392;28;20041;-83
2022/08/31 04:10:25;;;;;;;2.80;1.97;;;;;;;7.92;100.00;101657.38;4976476;28;20527;-84
2022/08/31 04:12:52;;;;;;;5.00;2.13;;;;;;;7.86;100.00;101663.47;4987467;28;20426;-83
2022/08/31 04:15:21;;;;;;;6.27;2.67;;;;;;;7.87;100.00;101666.13;4976767;28;20409;-83
2022/08/31 04:17:47;;;;;;;5.33;2.20;;;;;;;7.93;100.00;101665.28;4987777;28;20042;-84
2022/08/31 04:20:17;;;;;;;2.57;2.03;;;;;;;8.02;100.00;101672.34;4972967;28;20057;-84
2022/08/31 04:22:54;;;;;;;2.50;2.28;;;;;;;8.04;100.00;101675.88;4996748;28;20066;-83
2022/08/31 04:25:21;;;;;;;3.17;1.90;;;;;;;7.94;100.00;101666.16;4995403;28;20049;-83
2022/08/31 04:27:49;;;;;;;3.10;2.00;;;;;;;7.99;100.00;101680.22;4978656;28;20125;-83
2022/08/31 04:30:16;;;;;;;2.30;1.70;;;;;;;7.95;100.00;101679.31;4979902;28;20042;-83
2022/08/31 04:32:43;;;;;;;3.03;2.07;;;;;;;7.96;100.00;101680.19;4973208;28;20050;-84
2022/08/31 04:35:10;;;;;;;3.60;2.10;;;;;;;7.91;100.00;101690.72;4988568;28;20052;-83
2022/08/31 04:37:37;;;;;;;2.47;2.20;;;;;;;7.94;100.00;101692.47;4992211;28;20056;-83
2022/08/31 04:40:17;;;;;;;2.43;1.90;;;;;;;8.02;100.00;101685.50;4998733;28;20124;-83
2022/08/31 04:42:48;;;;;;;2.50;2.10;;;;;;;8.00;100.00;101680.25;4993191;28;20153;-84
2022/08/31 04:45:15;;;;;;;2.27;1.57;;;;;;;8.06;100.00;101682.00;5005737;28;20054;-84
2022/08/31 04:47:42;;;;;;;3.57;2.17;;;;;;;8.05;100.00;101689.03;4988089;28;20130;-83
2022/08/31 04:50:11;;;;;;;2.53;1.87;;;;;;;8.08;100.00;101693.47;4994450;28;20066;-83
2022/08/31 04:52:38;;;;;;;2.57;1.87;;;;;;;8.03;100.00;101685.50;4977559;28;20578;-83
2022/08/31 04:55:06;;;;;;;3.37;1.90;;;;;;;7.95;100.00;101684.59;4974683;28;20046;-84
2022/08/31 04:57:34;;;;;;;4.40;2.63;;;;;;;8.03;100.00;101688.16;4974276;28;20053;-84
2022/08/31 05:00:03;;;;;;;3.50;2.00;;;;;;;7.99;100.00;101686.38;4964455;28;20043;-84
2022/08/31 05:02:31;;;;;;;2.43;1.77;;;;;;;7.94;100.00;101689.84;4970852;28;20525;-83
2022/08/31 05:04:59;;;;;;;3.10;2.03;;;;;;;7.90;100.00;101688.91;4977967;28;20495;-83
2022/08/31 05:07:26;;;;;;;3.63;1.90;;;;;;;7.92;100.00;101689.84;4973576;28;20042;-83
2022/08/31 05:09:53;;;;;;;2.10;1.70;;;;;;;7.96;100.00;101685.47;4974895;28;20053;-84
2022/08/31 05:12:19;;;;;;;4.97;2.20;;;;;;;8.05;100.00;101681.13;4969184;28;20066;-84
2022/08/31 05:14:46;;;;;;;2.37;2.17;;;;;;;8.07;100.00;101678.50;4991096;28;20045;-84
2022/08/31 05:17:14;;;;;;;2.43;1.87;;;;;;;8.09;100.00;101684.69;4993211;28;20505;-83
2022/08/31 05:19:42;;;;;;;3.10;1.98;;;;;;;8.13;100.00;101682.06;4995773;28;20042;-85
2022/08/31 05:22:09;;;;;;;2.55;1.92;;;;;;;8.08;100.00;101685.56;4976625;28;20042;-83
2022/08/31 05:24:37;;;;;;;5.17;1.70;;;;;;;8.09;100.00;101680.31;4977878;28;20046;-84
2022/08/31 05:27:04;;;;;;;2.60;2.10;;;;;;;8.21;100.00;101683.88;4977073;28;20085;-83
2022/08/31 05:29:31;;;;;;;2.97;1.90;;;;;;;8.33;100.00;101694.47;4976041;28;20076;-84
2022/08/31 05:31:58;;;;;;;2.97;2.00;;;;;;;8.38;100.00;101690.13;4973682;28;20049;-84
2022/08/31 05:34:25;;;;;;;2.50;2.17;;;;;;;8.41;100.00;101698.06;4993358;28;20073;-84
2022/08/31 05:36:54;;;;;;;3.23;2.00;;;;;;;8.40;100.00;101691.88;4992325;28;20042;-83
2022/08/31 05:39:21;;;;;;;2.33;2.08;;;;;;;8.39;100.00;101692.75;4989099;28;20422;-83
2022/08/31 05:41:48;;;;;;;2.13;1.80;;;;;;;8.42;100.00;101691.91;4967990;28;20046;-84
2022/08/31 05:44:16;;;;;;;3.43;2.27;;;;;;;8.53;100.00;101691.97;4976817;28;20037;-84
2022/08/31 05:46:43;;;;;;;3.53;2.30;;;;;;;8.55;100.00;101687.56;4988353;28;20040;-83
2022/08/31 05:49:10;;;;;;;4.13;2.73;;;;;;;8.61;100.00;101692.88;4991648;28;20042;-84
2022/08/31 05:51:38;;;;;;;4.10;2.40;;;;;;;8.66;100.00;101697.31;4991616;28;20073;-84
2022/08/31 05:54:09;;;;;;;3.53;1.97;;;;;;;8.69;100.00;101696.44;4991239;28;20046;-84
2022/08/31 05:56:39;;;;;;;2.43;2.17;;;;;;;8.70;100.00;101698.19;4974759;28;20084;-84
2022/08/31 05:59:06;;;;;;;4.03;2.15;;;;;;;8.82;100.00;101697.34;4973895;28;20052;-84
2022/08/31 06:01:36;;;;;;;2.30;2.00;;;;;;;8.92;100.00;101701.78;4991250;28;20045;-84
2022/08/31 06:04:04;;;;;;;3.13;2.10;;;;;;;8.93;100.00;101696.50;4993222;28;20116;-84
2022/08/31 06:06:31;;;;;;;2.30;2.10;;;;;;;9.01;100.00;101693.91;5006293;28;20049;-84
2022/08/31 06:08:59;;;;;;;2.88;1.90;;;;;;;8.99;100.00;101690.34;4986025;28;20061;-84
2022/08/31 06:11:28;;;;;;;3.47;2.28;;;;;;;9.05;100.00;101694.78;4976191;28;20049;-83
2022/08/31 06:13:57;;;;;;;3.53;2.25;;;;;;;9.44;100.00;101692.19;4977765;28;20418;-84
2022/08/31 06:16:25;;;;;;;2.92;2.13;;;;;;;10.02;100.00;101692.19;5007344;28;20049;-84
2022/08/31 06:18:54;;;;;;;2.00;1.70;;;;;;;10.22;100.00;101694.78;4977961;28;20053;-84
2022/08/31 06:21:22;;;;;;;2.90;1.88;;;;;;;10.32;100.00;101698.28;4976617;28;20140;-84
2022/08/31 06:23:51;;;;;;;2.38;1.83;;;;;;;10.48;100.00;101686.78;5009851;28;20590;-84
2022/08/31 06:26:19;;;;;;;3.42;1.80;;;;;;;11.28;100.00;101696.06;4975912;28;20074;-84
2022/08/31 06:28:52;;;;;;;3.22;1.60;;;;;;;12.97;100.00;101697.91;4993335;28;20040;-83
2022/08/31 06:31:25;;;;;;;2.63;1.45;;;;;;;14.69;100.00;101691.41;4972710;28;20045;-83
2022/08/31 06:33:53;;;;;;;1.75;1.10;;;;;;;16.09;100.00;101692.53;4993411;28;20042;-84
2022/08/31 06:36:23;;;;;;;2.83;1.00;;;;;;;17.40;92.21;101688.66;4991808;28;20053;-84
2022/08/31 06:39:00;;;;;;;2.58;1.50;;;;;;;18.40;81.55;101683.41;4977540;28;20049;-84
2022/08/31 06:41:30;;;;;;;0.98;0.90;;;;;;;19.31;77.37;101696.91;5029271;28;20056;-81
2022/08/31 06:44:04;;;;;;;1.85;0.90;;;;;;;19.49;76.45;101696.16;5007032;28;20045;-83
2022/08/31 06:46:35;;;;;;;1.55;1.08;;;;;;;20.25;73.52;101700.97;4992288;28;20046;-81
2022/08/31 06:49:03;;;;;;;1.42;1.10;;;;;;;20.72;70.23;101706.06;5009759;28;20128;-83
2022/08/31 06:51:35;;;;;;;1.30;1.20;;;;;;;20.48;72.49;101709.84;4976446;28;20080;-82
2022/08/31 06:54:06;;;;;;;1.83;1.20;;;;;;;20.82;72.19;101703.81;4994957;28;20038;-80
2022/08/31 06:56:53;;;;;;;1.20;1.10;;;;;;;20.76;71.77;101704.94;4993029;28;20045;-82
2022/08/31 06:59:19;;;;;;;3.95;1.30;;;;;;;20.77;71.05;101700.47;4995005;28;20049;-80
2022/08/31 07:01:51;;;;;;;1.40;1.02;;;;;;;20.95;73.99;101701.44;4977458;28;20104;-82
2022/08/31 07:04:18;;;;;;;2.63;1.10;;;;;;;20.28;72.45;101705.34;5027503;28;20050;-83
2022/08/31 07:06:45;;;;;;;2.25;1.30;;;;;;;20.25;75.11;101700.97;5012542;28;20045;-82
2022/08/31 07:09:16;;;;;;;1.90;1.20;;;;;;;19.97;75.02;101708.50;4996900;28;20045;-80
2022/08/31 07:11:45;;;;;;;1.83;1.25;;;;;;;20.20;72.99;101710.19;4977604;28;20057;-83
2022/08/31 07:14:18;;;;;;;2.38;1.20;;;;;;;20.32;73.64;101711.44;4996494;28;20056;-81
2022/08/31 07:16:45;;;;;;;1.58;1.00;;;;;;;20.45;78.39;101715.38;4974533;28;20049;-80
2022/08/31 07:19:13;;;;;;;1.45;1.25;;;;;;;20.26;75.99;101715.25;4981086;28;20042;-80
2022/08/31 07:21:43;;;;;;;2.40;1.10;;;;;;;20.17;79.10;101713.84;4997648;28;20121;-82
2022/08/31 07:24:11;;;;;;;2.00;0.95;;;;;;;20.21;73.05;101715.47;4994510;28;20042;-81
2022/08/31 07:26:41;;;;;;;2.75;0.95;;;;;;;20.08;77.47;101706.22;4983318;28;20128;-81
2022/08/31 07:29:10;;;;;;;1.42;0.88;;;;;;;20.00;80.29;101718.19;5001785;28;20049;-80
2022/08/31 07:31:45;;;;;;;4.55;1.20;;;;;;;20.11;78.94;101716.81;4997106;28;20064;-80
2022/08/31 07:34:18;;;;;;;2.00;0.98;;;;;;;19.94;79.92;101719.34;5018752;28;20471;-84
2022/08/31 07:42:28;;;;;;;4.00;1.10;;;;;;;19.31;74.17;101723.72;4996419;28;20080;-81
2022/08/31 07:44:57;;;;;;;2.03;0.80;;;;;;;19.12;71.67;101723.56;4983656;28;20491;-78
2022/08/31 07:47:27;;;;;;;1.92;0.90;;;;;;;19.21;77.80;101716.97;5001057;28;20247;-82
2022/08/31 07:49:57;;;;;;;1.00;0.90;;;;;;;19.25;73.20;101719.47;4999919;28;20052;-79
2022/08/31 07:52:27;;;;;;;1.58;1.05;;;;;;;19.16;73.71;101724.31;4983537;28;20057;-79
2022/08/31 07:54:58;;;;;;;1.33;0.88;;;;;;;19.02;75.74;101724.88;4998195;28;20041;-80
2022/08/31 07:57:28;;;;;;;2.15;0.90;;;;;;;18.94;77.60;101737.69;4981196;28;20058;-78
2022/08/31 08:00:00;;;;;;;1.63;0.80;;;;;;;18.64;72.50;101734.31;4993470;28;20125;-79
2022/08/31 08:02:27;;;;;;;2.47;0.85;;;;;;;18.56;77.21;101731.91;4980241;28;20125;-80
2022/08/31 08:04:54;;;;;;;2.42;0.90;;;;;;;18.37;76.74;101742.41;4982948;28;20042;-83
2022/08/31 08:07:21;;;;;;;1.75;0.85;;;;;;;18.43;77.42;101738.66;4982522;28;20062;-80
2022/08/31 08:09:48;;;;;;;0.98;0.75;;;;;;;18.24;69.83;101736.63;4999742;28;20069;-81
2022/08/31 08:12:15;;;;;;;1.20;0.77;;;;;;;18.44;75.75;101732.38;5013848;28;20038;-81
2022/08/31 08:14:42;;;;;;;1.17;0.80;;;;;;;18.17;78.56;101736.91;4998512;28;20500;-80
2022/08/31 08:17:08;;;;;;;1.60;0.60;;;;;;;18.43;72.20;101735.97;4999635;28;20517;-82
2022/08/31 08:19:35;;;;;;;0.70;0.65;;;;;;;18.48;74.29;101734.84;4973282;28;20073;-81
2022/08/31 08:22:02;;;;;;;1.60;0.70;;;;;;;18.62;73.19;101730.81;4994026;28;20045;-81
2022/08/31 08:24:30;;;;;;;1.45;0.77;;;;;;;18.67;70.94;101723.53;4981218;28;20050;-81
2022/08/31 08:26:58;;;;;;;0.55;0.55;;;;;;;18.76;67.62;101731.22;4981301;28;20040;-84
2022/08/31 08:29:27;;;;;;;1.20;0.70;;;;;;;18.92;73.36;101732.38;5009032;28;20498;-83
2022/08/31 08:31:59;;;;;;;1.55;0.80;;;;;;;18.91;68.68;101735.09;5009819;28;20038;-82
2022/08/31 08:34:26;;;;;;;1.40;0.80;;;;;;;18.86;68.71;101737.97;4976538;28;20128;-79
2022/08/31 08:36:59;;;;;;;1.33;0.80;;;;;;;18.96;66.75;101734.00;5004928;28;20070;-80
2022/08/31 08:39:26;;;;;;;1.45;0.82;;;;;;;18.92;65.27;101734.16;5009634;28;20056;-81
2022/08/31 08:41:55;;;;;;;0.45;0.45;;;;;;;18.96;68.95;101743.84;4980966;28;20037;-80
2022/08/31 08:44:26;;;;;;;1.77;0.95;;;;;;;19.13;66.75;101752.97;4999803;28;20435;-80
2022/08/31 08:46:56;;;;;;;0.80;0.65;;;;;;;19.21;64.98;101741.97;4981996;28;20403;-80
2022/08/31 08:49:42;;;;;;;1.10;0.80;;;;;;;19.19;70.68;101740.28;5016970;28;20052;-80
2022/08/31 08:52:14;;;;;;;1.55;0.93;;;;;;;19.12;65.35;101743.19;5017624;28;20042;-82
2022/08/31 08:54:44;;;;;;;2.72;0.90;;;;;;;19.04;65.84;101742.63;4982733;28;20462;-80
2022/08/31 08:57:21;;;;;;;2.08;0.73;;;;;;;19.23;65.00;101739.22;4972272;28;20161;-82
2022/08/31 08:59:56;;;;;;;1.48;1.02;;;;;;;19.51;67.91;101745.25;5010392;28;20069;-81
2022/08/31 09:02:30;;;;;;;1.65;0.93;;;;;;;19.62;65.26;101734.09;5012074;28;20039;-83
2022/08/31 09:05:09;;;;;;;1.40;0.82;;;;;;;19.59;64.00;101735.13;4996425;28;20406;-82
2022/08/31 09:07:49;;;;;;;1.17;0.90;;;;;;;20.06;65.15;101734.03;5002304;28;20041;-84
2022/08/31 09:10:30;;;;;;;1.60;1.20;;;;;;;20.25;62.51;101727.81;4997936;28;20065;-83
2022/08/31 09:13:08;;;;;;;2.30;1.02;;;;;;;19.74;59.40;101740.75;4999262;28;20038;-82
2022/08/31 09:16:09;;;;;;;2.30;1.30;;;;;;;20.29;61.02;101736.59;4982897;28;20049;-80
2022/08/31 09:18:44;;;;;;;1.75;1.20;;;;;;;20.35;61.52;101725.63;5011118;28;20065;-81
2022/08/31 09:21:31;;;;;;;1.90;1.23;;;;;;;20.06;59.91;101742.97;4969785;28;20224;-84
2022/08/31 09:24:10;;;;;;;4.18;1.50;;;;;;;19.88;62.20;101735.69;4999036;28;20037;-84
2022/08/31 09:27:18;;;;;;;3.45;1.45;;;;;;;19.83;62.33;101737.69;5030501;28;20045;-83
2022/08/31 09:29:57;;;;;;;2.22;1.10;;;;;;;20.09;60.43;101732.09;5016619;28;20191;-82
2022/08/31 09:32:30;;;;;;;2.13;1.00;;;;;;;20.18;59.67;101738.91;4983342;28;20046;-81
2022/08/31 09:35:07;;;;;;;1.73;1.08;;;;;;;20.28;59.23;101734.88;5001763;28;20107;-80
2022/08/31 09:37:44;;;;;;;1.20;1.08;;;;;;;20.21;60.25;101728.03;5005605;28;20120;-81
2022/08/31 09:40:19;;;;;;;0.95;0.80;;;;;;;20.51;58.88;101736.53;4983731;28;20618;-82
2022/08/31 09:43:24;;;;;;;1.33;0.98;;;;;;;20.94;57.48;101729.25;4980300;28;20049;-81
2022/08/31 09:46:03;;;;;;;1.10;1.00;;;;;;;21.18;60.31;101724.50;4968130;28;20136;-82
2022/08/31 09:48:55;;;;;;;3.05;1.20;;;;;;;21.51;57.10;101716.66;5004575;28;20410;-81
2022/08/31 09:51:27;;;;;;;1.13;0.90;;;;;;;21.48;58.21;101720.38;5001170;28;20033;-81
2022/08/31 09:56:55;;;;;;;3.50;1.10;;;;;;;21.07;55.53;101733.06;5015213;28;20041;-81
2022/08/31 09:59:43;;;;;;;1.33;1.02;;;;;;;21.33;50.54;101713.91;4996425;28;20041;-81
2022/08/31 10:02:24;;;;;;;1.15;0.80;;;;;;;21.59;53.26;101709.06;5003372;28;20057;-81
2022/08/31 10:05:00;;;;;;;1.38;1.00;;;;;;;21.71;49.79;101721.94;4987205;28;20049;-82
2022/08/31 10:07:42;;;;;;;1.98;1.42;;;;;;;22.02;48.92;101710.44;4978452;28;20132;-81
2022/08/31 10:10:15;;;;;;;1.08;0.98;;;;;;;22.17;48.24;101715.06;4978769;28;20042;-81
2022/08/31 10:13:05;;;;;;;1.48;1.10;;;;;;;21.42;51.20;101711.72;4966206;28;20049;-81
2022/08/31 10:15:38;;;;;;;1.23;0.90;;;;;;;21.89;52.38;101712.91;5010658;28;20419;-82
2022/08/31 10:18:28;;;;;;;1.58;1.10;;;;;;;21.95;51.86;101697.44;4985105;28;20042;-81
2022/08/31 10:21:04;;;;;;;0.95;0.90;;;;;;;22.00;52.24;101708.81;5014365;28;20081;-81
2022/08/31 10:23:52;;;;;;;1.98;1.13;;;;;;;21.82;52.39;101705.25;4979424;28;20135;-82
2022/08/31 10:26:30;;;;;;;1.13;1.00;;;;;;;21.18;54.19;101725.38;5018789;28;20034;-82
2022/08/31 10:29:00;;;;;;;1.50;1.17;;;;;;;21.30;56.02;101719.44;4979226;28;20046;-81
2022/08/31 10:31:35;;;;;;;2.20;1.40;;;;;;;21.19;50.70;101707.41;4977511;28;20470;-82
2022/08/31 10:37:08;;;;;;;1.30;1.20;;;;;;;21.45;52.39;101693.66;5011022;28;20529;-81
2022/08/31 10:39:57;;;;;;;2.85;1.20;;;;;;;21.76;50.34;101708.22;4995383;28;20492;-82
2022/08/31 10:42:28;;;;;;;3.00;1.30;;;;;;;22.09;51.30;101702.97;4977683;28;20044;-81
2022/08/31 10:45:03;;;;;;;2.22;1.40;;;;;;;22.23;49.96;101700.44;4995692;28;20049;-82
2022/08/31 10:47:30;;;;;;;3.08;1.20;;;;;;;22.19;48.54;101705.09;4983165;28;20049;-82
2022/08/31 10:50:02;;;;;;;1.90;1.45;;;;;;;22.37;47.68;101695.19;5019668;28;20136;-83
2022/08/31 10:52:33;;;;;;;2.67;1.50;;;;;;;22.68;48.10;101696.22;4988313;28;20072;-85
2022/08/31 10:55:15;;;;;;;1.42;1.23;;;;;;;23.19;45.47;101692.47;4986157;28;20046;-82
2022/08/31 10:57:53;;;;;;;4.38;1.10;;;;;;;23.38;43.15;101695.00;5019566;28;20037;-82
2022/08/31 11:00:40;;;;;;;2.67;1.40;;;;;;;22.90;47.03;101694.13;4983166;28;20450;-84
2022/08/31 11:03:21;;;;;;;1.20;1.10;;;;;;;23.22;47.66;101691.44;5005458;28;20049;-84
2022/08/31 11:06:16;;;;;;;1.65;1.20;;;;;;;22.48;44.95;101698.19;5004730;28;20057;-82
2022/08/31 11:08:56;;;;;;;2.38;1.30;;;;;;;22.18;48.11;101689.91;4978784;28;20046;-85
2022/08/31 11:11:41;;;;;;;1.40;1.17;;;;;;;21.72;50.49;101695.91;4976359;28;20054;-82
2022/08/31 11:14:47;;;;;;;1.67;1.10;;;;;;;21.77;51.57;101697.38;5019021;28;20034;-81
2022/08/31 11:17:28;;;;;;;0.80;0.80;;;;;;;21.43;48.54;101689.28;5010279;28;20038;-82
2022/08/31 11:20:23;;;;;;;2.28;1.10;;;;;;;21.32;51.40;101688.00;4981242;28;20038;-82
2022/08/31 11:23:16;;;;;;;;;;;;;;;21.07;52.01;101690.09;4979310;28;20053;-83
2022/08/31 11:25:55;;;;;;;2.15;1.15;;;;;;;20.96;50.66;101689.75;5022017;28;19925;-83
2022/08/31 11:28:47;;;;;;;1.40;0.95;;;;;;;21.02;50.83;101695.69;4999125;28;20042;-82
2022/08/31 11:31:24;;;;;;;1.08;0.98;;;;;;;20.50;55.07;101681.97;4997553;28;20077;-82
2022/08/31 11:33:56;;;;;;;1.63;1.15;;;;;;;20.75;50.83;101684.41;5035649;28;20042;-83
2022/08/31 11:36:50;;;;;;;1.52;1.30;;;;;;;20.62;51.98;101683.25;5014806;28;20048;-82
2022/08/31 11:39:44;;;;;;;2.65;1.30;;;;;;;20.52;53.23;101682.81;4999461;28;20041;-83
2022/08/31 11:42:17;;;;;;;2.40;1.27;;;;;;;20.38;51.20;101679.84;5013156;28;20057;-82
2022/08/31 11:44:47;;;;;;;6.63;1.58;;;;;;;20.31;55.85;101677.50;5011013;28;20045;-81
2022/08/31 11:47:26;;;;;;;1.88;1.27;;;;;;;20.49;52.45;101669.50;4996693;28;20139;-83
2022/08/31 11:50:04;;;;;;;2.40;1.10;;;;;;;20.85;54.01;101667.88;4980484;28;20038;-81
2022/08/31 11:52:41;;;;;;;2.38;1.00;;;;;;;21.34;50.43;101667.28;4996551;28;20772;-83
2022/08/31 11:55:47;;;;;;;1.48;1.00;;;;;;;21.77;49.32;101667.78;4981661;28;20484;-82
2022/08/31 11:58:21;;;;;;;1.15;1.00;;;;;;;21.39;45.98;101671.56;4973132;28;20134;-82
2022/08/31 12:01:08;;;;;;;1.50;1.10;;;;;;;21.28;48.75;101669.41;4979991;28;20072;-82